Time;durP1;ratioP1;P1;durP2;ratioP2;P2;SDS_P1;SDS_P2;PMS_P1;PMS_P2;Temp;Humidity;BMP_temperature;BMP_pressure;BME280_temperature;BME280_humidity;BME280_pressure;Samples;Min_cycle;Max_cycle;Signal;HPM_P1;HPM_P2
2022/10/10 00:01:34;;;;;;;6.70;5.73;;;6.90;99.90;;;;;;5015005;28;20450;-75
2022/10/10 00:04:01;;;;;;;8.30;5.72;;;7.10;99.90;;;;;;5014796;28;20252;-74
2022/10/10 00:06:28;;;;;;;8.20;6.20;;;7.00;99.90;;;;;;5014955;28;20030;-75
2022/10/10 00:08:53;;;;;;;10.90;6.18;;;7.00;99.90;;;;;;5014834;28;20484;-74
2022/10/10 00:11:21;;;;;;;7.85;5.50;;;6.90;99.90;;;;;;5014790;28;20026;-75
2022/10/10 00:13:47;;;;;;;11.40;6.50;;;7.00;99.90;;;;;;5014790;28;20045;-75
2022/10/10 00:16:14;;;;;;;10.82;6.28;;;7.00;99.90;;;;;;5014767;28;20461;-75
2022/10/10 00:18:40;;;;;;;10.90;6.60;;;6.90;99.90;;;;;;5014674;28;20021;-75
2022/10/10 00:21:06;;;;;;;10.93;6.53;;;6.80;99.90;;;;;;5014542;28;20142;-75
2022/10/10 00:23:32;;;;;;;8.90;6.05;;;6.90;99.90;;;;;;5014674;28;20029;-75
2022/10/10 00:25:57;;;;;;;10.52;6.47;;;7.00;99.90;;;;;;5014589;28;20026;-75
2022/10/10 00:28:23;;;;;;;9.98;6.28;;;7.00;99.90;;;;;;5014335;28;20028;-75
2022/10/10 00:30:49;;;;;;;12.30;6.72;;;6.90;99.90;;;;;;5014498;28;20026;-75
2022/10/10 00:33:14;;;;;;;8.35;6.47;;;6.90;99.90;;;;;;5042004;23;20049;-77
2022/10/10 00:35:40;;;;;;;12.77;6.50;;;6.70;99.90;;;;;;5034729;28;20465;-77
2022/10/10 00:38:06;;;;;;;9.07;6.35;;;6.90;99.90;;;;;;5034805;28;20579;-76
2022/10/10 00:40:31;;;;;;;10.00;6.63;;;7.00;99.90;;;;;;5034645;28;20025;-76
2022/10/10 00:42:57;;;;;;;10.05;6.50;;;6.90;99.90;;;;;;5053539;28;20061;-76
2022/10/10 00:45:38;;;;;;;10.13;6.03;;;6.70;99.90;;;;;;5054394;28;20021;-76
2022/10/10 00:48:07;;;;;;;10.90;6.50;;;6.70;99.90;;;;;;5014949;28;20029;-76
2022/10/10 00:50:37;;;;;;;9.77;6.68;;;6.80;99.90;;;;;;5030173;28;20064;-76
2022/10/10 00:53:05;;;;;;;12.13;6.93;;;6.70;99.90;;;;;;5034061;28;20029;-76
2022/10/10 00:55:31;;;;;;;11.00;7.35;;;6.60;99.90;;;;;;5034100;28;20025;-77
2022/10/10 00:57:57;;;;;;;10.20;6.57;;;6.60;99.90;;;;;;5034087;28;20040;-77
2022/10/10 01:00:23;;;;;;;11.13;6.53;;;6.70;99.90;;;;;;5034340;28;20165;-76
2022/10/10 01:02:48;;;;;;;10.93;7.10;;;6.60;99.90;;;;;;5034483;28;20369;-77
2022/10/10 01:05:14;;;;;;;10.60;6.38;;;6.60;99.90;;;;;;5034038;28;20021;-76
2022/10/10 01:07:41;;;;;;;9.15;6.20;;;6.60;99.90;;;;;;5033738;28;20342;-77
2022/10/10 01:10:13;;;;;;;11.63;7.07;;;6.60;99.90;;;;;;5033697;28;20030;-76
2022/10/10 01:12:51;;;;;;;7.88;6.00;;;6.50;99.90;;;;;;5033917;28;20075;-76
2022/10/10 01:15:45;;;;;;;12.20;7.30;;;6.60;99.90;;;;;;5033853;28;20021;-76
2022/10/10 01:18:20;;;;;;;9.07;6.32;;;6.50;99.90;;;;;;5033907;28;20044;-76
2022/10/10 01:20:58;;;;;;;11.63;6.68;;;6.60;99.90;;;;;;5033761;28;20026;-76
2022/10/10 01:23:34;;;;;;;10.88;6.90;;;6.70;99.90;;;;;;5033513;28;20029;-76
2022/10/10 01:26:18;;;;;;;9.27;6.25;;;6.60;99.90;;;;;;5033591;28;20021;-77
2022/10/10 01:28:55;;;;;;;10.55;6.55;;;6.60;99.90;;;;;;5033663;28;20034;-77
2022/10/10 01:31:23;;;;;;;10.77;6.57;;;6.70;99.90;;;;;;5033644;28;20083;-77
2022/10/10 01:34:04;;;;;;;13.20;7.13;;;6.60;99.90;;;;;;5018683;28;20429;-76
2022/10/10 01:36:40;;;;;;;10.50;6.35;;;6.70;99.90;;;;;;5032967;28;20045;-77
2022/10/10 01:39:30;;;;;;;10.35;6.25;;;6.60;99.90;;;;;;5033475;28;20060;-77
2022/10/10 01:42:02;;;;;;;12.88;6.65;;;6.60;99.90;;;;;;5026718;28;20489;-76
2022/10/10 01:44:27;;;;;;;9.82;6.63;;;6.60;99.90;;;;;;5015736;28;20048;-76
2022/10/10 01:46:53;;;;;;;11.85;6.78;;;6.70;99.90;;;;;;5017197;28;20032;-76
2022/10/10 01:49:23;;;;;;;10.73;6.68;;;6.80;99.90;;;;;;5013571;28;20496;-77
2022/10/10 01:52:14;;;;;;;9.60;6.22;;;6.80;99.90;;;;;;5013556;28;20620;-76
2022/10/10 01:55:17;;;;;;;8.75;6.50;;;6.70;99.90;;;;;;5012498;28;20036;-76
2022/10/10 01:58:04;;;;;;;11.63;6.72;;;6.60;99.90;;;;;;5013201;28;20018;-76
2022/10/10 02:00:39;;;;;;;11.48;6.53;;;6.70;99.90;;;;;;5013246;28;20465;-76
2022/10/10 02:03:15;;;;;;;10.45;6.95;;;6.60;99.90;;;;;;5013317;28;20032;-76
2022/10/10 02:05:40;;;;;;;11.38;6.57;;;6.70;99.90;;;;;;5013312;28;20367;-76
2022/10/10 02:08:09;;;;;;;12.52;6.40;;;6.70;99.90;;;;;;4995481;28;20516;-77
2022/10/10 02:10:42;;;;;;;10.88;6.50;;;6.80;99.90;;;;;;5013181;28;20536;-76
2022/10/10 02:13:10;;;;;;;9.40;6.80;;;6.70;99.90;;;;;;5012968;28;20036;-77
2022/10/10 02:15:48;;;;;;;11.52;6.80;;;6.80;99.90;;;;;;5013272;28;20026;-76
2022/10/10 02:18:17;;;;;;;10.73;6.45;;;6.80;99.90;;;;;;4995250;28;20358;-76
2022/10/10 02:20:44;;;;;;;8.63;5.90;;;6.80;99.90;;;;;;5012749;28;20017;-76
2022/10/10 02:23:14;;;;;;;11.15;6.47;;;6.80;99.90;;;;;;5012701;28;20022;-76
2022/10/10 02:25:41;;;;;;;11.25;6.68;;;6.80;99.90;;;;;;5012909;28;20029;-76
2022/10/10 02:28:34;;;;;;;10.68;5.88;;;6.80;99.90;;;;;;5012799;28;20030;-76
2022/10/10 02:31:04;;;;;;;10.32;6.57;;;6.80;99.90;;;;;;5012928;28;20154;-76
2022/10/10 02:33:44;;;;;;;11.50;6.75;;;6.80;99.90;;;;;;5012564;28;20069;-76
2022/10/10 02:36:11;;;;;;;7.18;6.00;;;6.90;99.90;;;;;;5012778;28;20454;-76
2022/10/10 02:38:38;;;;;;;8.07;5.78;;;6.80;99.90;;;;;;5012736;28;20457;-76
2022/10/10 02:41:06;;;;;;;8.63;6.40;;;6.80;99.90;;;;;;5012788;28;20029;-76
2022/10/10 02:43:33;;;;;;;9.35;7.22;;;6.70;99.90;;;;;;5012521;28;20026;-76
2022/10/10 02:46:07;;;;;;;9.85;6.47;;;6.70;99.90;;;;;;4994918;28;20521;-76
2022/10/10 02:48:32;;;;;;;8.45;6.20;;;6.70;99.90;;;;;;5012738;28;20113;-76
2022/10/10 02:50:58;;;;;;;11.50;6.22;;;6.70;99.90;;;;;;5029751;28;20096;-76
2022/10/10 02:53:24;;;;;;;10.98;6.50;;;6.70;99.90;;;;;;5032317;28;20206;-76
2022/10/10 02:55:50;;;;;;;9.48;6.20;;;6.80;99.90;;;;;;5032386;28;20025;-75
2022/10/10 02:58:15;;;;;;;9.90;6.07;;;6.70;99.90;;;;;;5032247;28;20495;-75
2022/10/10 03:00:41;;;;;;;8.70;6.00;;;6.60;99.90;;;;;;5032381;28;20017;-75
2022/10/10 03:03:06;;;;;;;9.45;5.95;;;6.60;99.90;;;;;;5032302;28;20435;-76
2022/10/10 03:05:32;;;;;;;12.20;6.38;;;6.70;99.90;;;;;;5032136;28;20457;-76
2022/10/10 03:07:58;;;;;;;12.57;6.28;;;6.60;99.90;;;;;;5036003;28;20032;-76
2022/10/10 03:10:23;;;;;;;10.15;6.57;;;6.50;99.90;;;;;;5035851;28;20041;-76
2022/10/10 03:12:49;;;;;;;9.80;6.43;;;6.50;99.90;;;;;;5036106;28;20033;-76
2022/10/10 03:15:14;;;;;;;13.35;6.72;;;6.50;99.90;;;;;;5035909;28;20033;-76
2022/10/10 03:17:40;;;;;;;10.73;6.65;;;6.50;99.90;;;;;;5036004;28;20457;-77
2022/10/10 03:20:07;;;;;;;13.00;6.97;;;6.50;99.90;;;;;;5018126;28;20080;-76
2022/10/10 03:22:32;;;;;;;12.88;8.13;;;6.50;99.90;;;;;;5036196;28;20028;-76
2022/10/10 03:24:58;;;;;;;11.98;5.88;;;6.50;99.90;;;;;;5035680;28;20030;-77
2022/10/10 03:27:23;;;;;;;11.27;7.78;;;6.50;99.90;;;;;;5035612;28;20108;-77
2022/10/10 03:29:49;;;;;;;14.18;8.13;;;6.40;99.90;;;;;;5035512;28;20064;-76
2022/10/10 03:32:14;;;;;;;8.18;6.10;;;6.40;99.90;;;;;;5035416;28;20037;-76
2022/10/10 03:34:40;;;;;;;10.35;6.53;;;6.40;99.90;;;;;;5035612;28;20025;-76
2022/10/10 03:37:05;;;;;;;9.80;6.90;;;6.40;99.90;;;;;;5035551;28;20029;-76
2022/10/10 03:39:31;;;;;;;8.20;5.68;;;6.40;99.90;;;;;;5035569;28;20025;-76
2022/10/10 03:41:57;;;;;;;9.90;6.65;;;6.50;99.90;;;;;;5035472;28;20024;-76
2022/10/10 03:44:22;;;;;;;11.85;7.55;;;6.50;99.90;;;;;;5035341;28;20013;-76
2022/10/10 03:46:48;;;;;;;8.40;5.90;;;6.40;99.90;;;;;;5035699;28;20079;-76
2022/10/10 03:49:13;;;;;;;8.57;6.20;;;6.30;99.90;;;;;;5035294;28;20488;-76
2022/10/10 03:51:39;;;;;;;8.68;6.55;;;6.30;99.90;;;;;;5035403;28;20115;-76
2022/10/10 03:54:05;;;;;;;9.40;6.40;;;6.30;99.90;;;;;;5035293;28;20053;-76
2022/10/10 03:56:30;;;;;;;10.63;6.45;;;6.20;99.90;;;;;;5035175;28;20022;-76
2022/10/10 03:58:59;;;;;;;8.43;6.50;;;6.20;99.90;;;;;;5035237;28;20032;-76
2022/10/10 04:01:26;;;;;;;7.97;6.10;;;6.30;99.90;;;;;;5035539;28;20021;-76
2022/10/10 04:03:51;;;;;;;10.60;6.22;;;6.20;99.90;;;;;;5035189;28;20026;-77
2022/10/10 04:06:18;;;;;;;9.20;5.85;;;6.20;99.90;;;;;;5035103;28;20483;-76
2022/10/10 04:08:43;;;;;;;10.70;6.00;;;6.10;99.90;;;;;;5035081;28;20465;-76
2022/10/10 04:11:09;;;;;;;13.32;6.93;;;6.10;99.90;;;;;;5034862;28;20036;-77
2022/10/10 04:13:34;;;;;;;9.45;6.22;;;6.10;99.90;;;;;;5026845;28;20505;-76
2022/10/10 04:16:00;;;;;;;9.43;6.07;;;6.20;99.90;;;;;;5015202;28;20101;-76
2022/10/10 04:18:25;;;;;;;11.35;7.70;;;6.20;99.90;;;;;;5023348;28;20088;-76
2022/10/10 04:20:51;;;;;;;10.40;6.03;;;6.00;99.90;;;;;;5035006;28;20025;-76
2022/10/10 04:23:17;;;;;;;9.18;6.47;;;6.10;99.90;;;;;;5042797;28;20105;-76
2022/10/10 04:25:43;;;;;;;10.60;6.93;;;6.20;99.90;;;;;;5054871;28;20021;-76
2022/10/10 04:28:13;;;;;;;10.55;6.60;;;6.10;99.90;;;;;;5055124;28;20028;-76
2022/10/10 04:30:39;;;;;;;;;;;6.10;99.90;;;;;;5041967;28;20080;-77
2022/10/10 04:33:05;;;;;;;16.15;7.28;;;6.10;99.90;;;;;;5036327;28;19921;-77
2022/10/10 04:35:30;;;;;;;10.75;6.20;;;6.10;99.90;;;;;;5036529;28;20063;-77
2022/10/10 04:37:56;;;;;;;9.43;6.50;;;6.10;99.90;;;;;;5033774;28;20022;-77
2022/10/10 04:40:21;;;;;;;9.05;5.70;;;6.00;99.90;;;;;;5031734;28;20096;-77
2022/10/10 04:42:47;;;;;;;10.15;6.32;;;6.00;99.90;;;;;;5038175;28;20108;-77
2022/10/10 04:45:12;;;;;;;11.27;6.05;;;6.00;99.90;;;;;;5038395;28;20021;-77
2022/10/10 04:47:38;;;;;;;8.60;6.18;;;6.00;99.90;;;;;;5037828;28;20084;-77
2022/10/10 04:50:04;;;;;;;11.50;6.22;;;6.10;99.90;;;;;;5034098;28;20033;-77
2022/10/10 04:52:29;;;;;;;9.57;6.13;;;6.00;99.90;;;;;;5037885;28;20057;-77
2022/10/10 04:54:55;;;;;;;12.68;7.25;;;6.00;99.90;;;;;;5036585;28;20041;-77
2022/10/10 04:57:21;;;;;;;10.30;6.38;;;6.20;99.90;;;;;;5020341;28;20068;-78
2022/10/10 04:59:46;;;;;;;10.23;6.10;;;6.00;99.90;;;;;;5037563;28;20129;-77
2022/10/10 05:02:12;;;;;;;9.05;5.78;;;6.00;99.90;;;;;;5031347;28;20029;-76
2022/10/10 05:04:38;;;;;;;10.48;6.80;;;5.90;99.90;;;;;;5034342;28;20033;-77
2022/10/10 05:07:03;;;;;;;10.18;6.22;;;5.90;99.90;;;;;;5036043;28;20021;-78
2022/10/10 05:09:29;;;;;;;9.50;5.95;;;5.80;99.90;;;;;;5036981;28;20021;-78
2022/10/10 05:11:55;;;;;;;9.50;6.18;;;5.90;99.90;;;;;;5032409;28;20026;-78
2022/10/10 05:14:20;;;;;;;11.75;6.70;;;6.00;99.90;;;;;;5031956;28;20086;-78
2022/10/10 05:16:46;;;;;;;13.30;7.00;;;5.90;99.90;;;;;;5032084;28;20104;-78
2022/10/10 05:19:11;;;;;;;10.43;6.25;;;5.90;99.90;;;;;;5040016;28;20119;-78
2022/10/10 05:21:37;;;;;;;10.38;6.20;;;6.00;99.90;;;;;;5032873;28;20025;-78
2022/10/10 05:24:03;;;;;;;9.27;6.10;;;6.00;99.90;;;;;;5034302;28;20040;-78
2022/10/10 05:26:28;;;;;;;10.20;6.35;;;6.00;99.90;;;;;;5035212;28;20033;-78
2022/10/10 05:28:54;;;;;;;7.97;6.03;;;6.00;99.90;;;;;;5033608;28;20036;-78
2022/10/10 05:31:20;;;;;;;12.02;6.47;;;6.00;99.90;;;;;;5038167;28;20027;-78
2022/10/10 05:33:45;;;;;;;11.38;6.28;;;5.90;99.90;;;;;;5037824;28;20112;-78
2022/10/10 05:36:12;;;;;;;9.88;6.15;;;5.80;99.90;;;;;;5033070;28;20025;-78
2022/10/10 05:38:39;;;;;;;9.65;6.40;;;5.90;99.90;;;;;;5030005;28;20025;-78
2022/10/10 05:41:06;;;;;;;10.45;6.15;;;5.90;99.90;;;;;;5031670;28;20028;-78
2022/10/10 05:43:31;;;;;;;9.18;5.85;;;5.80;99.90;;;;;;5031130;28;20091;-78
2022/10/10 05:45:57;;;;;;;13.95;6.85;;;6.10;99.90;;;;;;5031447;28;20025;-78
2022/10/10 05:48:23;;;;;;;9.55;6.20;;;6.10;99.90;;;;;;5031818;28;20029;-78
2022/10/10 05:50:51;;;;;;;11.23;6.35;;;6.10;99.90;;;;;;5037952;28;20096;-78
2022/10/10 05:53:17;;;;;;;11.00;6.70;;;6.10;99.90;;;;;;5033082;28;20080;-78
2022/10/10 05:55:43;;;;;;;8.27;6.15;;;6.20;99.90;;;;;;5034443;28;20381;-78
2022/10/10 05:58:12;;;;;;;10.07;7.00;;;6.10;99.90;;;;;;5033320;28;20053;-79
2022/10/10 06:00:38;;;;;;;11.45;6.97;;;6.10;99.90;;;;;;5034373;28;20018;-78
2022/10/10 06:03:04;;;;;;;9.32;6.25;;;6.10;99.90;;;;;;5031711;28;20108;-79
2022/10/10 06:05:29;;;;;;;8.75;6.10;;;6.20;99.90;;;;;;5032208;28;20109;-78
2022/10/10 06:07:55;;;;;;;12.30;7.25;;;6.30;99.90;;;;;;5032992;28;20434;-79
2022/10/10 06:10:20;;;;;;;8.75;6.03;;;6.50;99.90;;;;;;5030396;28;20518;-78
2022/10/10 06:12:46;;;;;;;15.38;7.07;;;6.50;99.90;;;;;;5029165;28;20025;-78
2022/10/10 06:15:12;;;;;;;9.73;6.65;;;6.60;99.90;;;;;;5036281;28;20380;-78
2022/10/10 06:17:37;;;;;;;11.77;6.93;;;6.60;99.90;;;;;;5026855;28;20032;-78
2022/10/10 06:20:03;;;;;;;13.02;6.90;;;6.60;99.90;;;;;;5012551;28;20082;-79
2022/10/10 06:22:29;;;;;;;10.55;6.68;;;6.70;99.90;;;;;;5033533;28;20040;-78
2022/10/10 06:24:54;;;;;;;9.98;6.85;;;6.80;99.90;;;;;;5039245;28;20060;-78
2022/10/10 06:27:20;;;;;;;14.50;8.13;;;6.80;99.90;;;;;;5038422;28;20029;-78
2022/10/10 06:29:46;;;;;;;12.18;8.18;;;6.90;99.90;;;;;;5032817;28;20053;-78
2022/10/10 06:32:11;;;;;;;15.60;8.73;;;7.10;99.90;;;;;;5031174;28;20029;-78
2022/10/10 06:34:37;;;;;;;12.95;7.57;;;7.30;99.90;;;;;;5032294;28;20029;-78
2022/10/10 06:37:02;;;;;;;10.32;7.80;;;7.50;99.90;;;;;;5030744;28;20018;-79
2022/10/10 06:39:28;;;;;;;12.93;6.95;;;7.50;99.90;;;;;;5035831;28;20039;-78
2022/10/10 06:41:54;;;;;;;11.98;7.38;;;7.60;99.90;;;;;;5036954;28;20033;-78
2022/10/10 06:44:19;;;;;;;12.85;8.00;;;7.80;99.90;;;;;;5021698;28;20028;-78
2022/10/10 06:46:45;;;;;;;11.27;7.70;;;7.90;99.90;;;;;;5037587;28;20025;-79
2022/10/10 06:49:10;;;;;;;14.10;8.02;;;8.10;99.90;;;;;;5034262;28;20036;-78
2022/10/10 06:51:37;;;;;;;14.27;8.23;;;8.30;99.90;;;;;;5033547;28;20030;-79
2022/10/10 06:54:03;;;;;;;10.13;6.63;;;8.40;99.90;;;;;;5032656;28;20062;-78
2022/10/10 06:56:29;;;;;;;12.23;7.38;;;8.70;99.90;;;;;;5029181;28;20504;-78
2022/10/10 06:58:55;;;;;;;16.40;8.60;;;9.00;99.90;;;;;;5037045;28;20037;-78
2022/10/10 07:01:22;;;;;;;15.00;7.53;;;9.80;99.90;;;;;;5016944;28;20028;-79
2022/10/10 07:03:47;;;;;;;13.20;8.40;;;11.10;99.90;;;;;;5015324;28;20062;-78
2022/10/10 07:06:14;;;;;;;11.35;7.85;;;14.00;95.20;;;;;;5030761;28;20053;-78
2022/10/10 07:08:40;;;;;;;10.57;6.70;;;16.20;38.60;;;;;;5028459;28;20085;-78
2022/10/10 07:11:07;;;;;;;11.07;6.90;;;17.80;20.00;;;;;;5027357;28;20152;-79
2022/10/10 07:13:36;;;;;;;11.77;6.93;;;19.50;5.50;;;;;;5030879;28;20013;-78
2022/10/10 07:16:03;;;;;;;9.57;6.93;;;21.50;1.00;;;;;;5030926;28;20021;-78
2022/10/10 07:18:29;;;;;;;8.98;6.40;;;23.70;1.00;;;;;;5030585;28;20267;-78
2022/10/10 07:20:59;;;;;;;15.13;6.20;;;25.40;1.00;;;;;;5030084;28;20116;-78
2022/10/10 07:23:25;;;;;;;8.07;5.55;;;26.20;1.00;;;;;;5032699;28;20223;-78
2022/10/10 07:25:51;;;;;;;8.30;5.47;;;26.20;1.00;;;;;;5036470;28;20051;-78
2022/10/10 07:28:17;;;;;;;9.90;6.03;;;27.50;1.00;;;;;;5037077;28;20025;-78
2022/10/10 07:30:44;;;;;;;8.15;5.60;;;27.70;1.00;;;;;;5036402;28;20107;-78
2022/10/10 07:33:11;;;;;;;10.20;5.72;;;25.30;1.00;;;;;;5010587;28;20049;-79
2022/10/10 07:35:37;;;;;;;10.38;6.75;;;25.00;1.00;;;;;;5015386;28;20017;-78
2022/10/10 07:38:03;;;;;;;8.95;5.65;;;25.10;1.00;;;;;;5021900;28;20112;-79
2022/10/10 07:40:28;;;;;;;7.22;5.93;;;22.40;1.00;;;;;;5014157;28;20025;-78
2022/10/10 07:42:54;;;;;;;8.50;6.03;;;20.30;1.00;;;;;;5017701;28;20118;-78
2022/10/10 07:45:19;;;;;;;11.23;6.38;;;18.90;1.00;;;;;;5015661;28;20474;-78
2022/10/10 07:47:46;;;;;;;9.32;7.05;;;17.70;1.00;;;;;;5010492;28;20548;-78
2022/10/10 07:50:12;;;;;;;8.00;6.25;;;17.50;1.00;;;;;;5009926;28;20092;-79
2022/10/10 07:52:38;;;;;;;13.15;6.68;;;17.70;1.00;;;;;;5021532;28;20512;-78
2022/10/10 07:55:05;;;;;;;12.23;6.40;;;17.70;1.00;;;;;;5018746;28;20026;-78
2022/10/10 07:57:33;;;;;;;10.80;6.93;;;17.40;1.00;;;;;;5023235;28;20030;-78
2022/10/10 08:00:07;;;;;;;10.25;7.53;;;17.00;1.00;;;;;;5017406;28;20223;-79
2022/10/10 08:02:33;;;;;;;10.65;6.93;;;16.70;1.00;;;;;;5020347;28;20160;-78
2022/10/10 08:04:58;;;;;;;10.68;6.95;;;16.80;1.00;;;;;;5019226;28;20042;-79
2022/10/10 08:07:24;;;;;;;10.88;6.88;;;17.10;1.00;;;;;;5025823;28;20481;-79
2022/10/10 08:09:50;;;;;;;14.48;9.23;;;17.00;1.00;;;;;;5019662;28;20022;-78
2022/10/10 08:12:15;;;;;;;13.57;8.52;;;16.70;1.00;;;;;;5020008;28;20041;-79
2022/10/10 08:14:41;;;;;;;10.18;7.28;;;16.60;1.00;;;;;;5020385;28;20032;-79
2022/10/10 08:17:06;;;;;;;13.32;7.53;;;16.40;1.00;;;;;;5024246;28;20057;-79
2022/10/10 08:19:32;;;;;;;11.13;7.30;;;16.40;1.00;;;;;;5018101;28;20109;-79
2022/10/10 08:21:58;;;;;;;10.52;7.40;;;15.90;1.00;;;;;;5019112;28;20022;-78
2022/10/10 08:24:23;;;;;;;10.32;6.97;;;15.90;1.00;;;;;;5017363;28;20025;-79
2022/10/10 08:26:49;;;;;;;9.88;7.75;;;15.60;1.00;;;;;;5015448;28;20085;-78
2022/10/10 08:29:15;;;;;;;15.43;7.97;;;15.70;1.00;;;;;;5013419;28;20026;-78
2022/10/10 08:31:41;;;;;;;11.77;7.70;;;16.60;1.00;;;;;;5010644;28;20033;-78
2022/10/10 08:34:08;;;;;;;11.50;7.47;;;16.70;1.00;;;;;;5035315;28;20073;-78
2022/10/10 08:36:33;;;;;;;12.10;7.00;;;17.30;1.00;;;;;;5035678;28;20025;-78
2022/10/10 08:39:00;;;;;;;9.82;7.22;;;18.50;1.00;;;;;;5037217;28;20060;-78
2022/10/10 08:41:35;;;;;;;12.82;7.47;;;17.40;1.00;;;;;;5028010;28;20029;-78
2022/10/10 08:44:06;;;;;;;14.60;7.53;;;16.40;1.00;;;;;;5042198;28;20055;-78
2022/10/10 08:46:52;;;;;;;10.02;7.10;;;15.80;1.00;;;;;;5026969;28;20037;-79
2022/10/10 08:49:50;;;;;;;10.07;7.28;;;15.80;1.00;;;;;;5047164;28;20021;-79
2022/10/10 08:52:31;;;;;;;10.48;7.72;;;15.70;1.00;;;;;;5002671;28;20053;-78
2022/10/10 08:55:00;;;;;;;12.05;7.13;;;16.00;1.00;;;;;;5015738;28;20492;-78
2022/10/10 08:57:29;;;;;;;13.83;7.30;;;16.00;1.00;;;;;;5038004;28;20032;-78
2022/10/10 09:00:04;;;;;;;9.77;7.47;;;16.10;1.00;;;;;;5037537;28;20034;-79
2022/10/10 09:02:48;;;;;;;16.92;7.13;;;16.00;1.00;;;;;;5038582;28;20033;-79
2022/10/10 09:05:17;;;;;;;14.05;7.80;;;15.80;1.00;;;;;;5053207;28;20033;-78
2022/10/10 09:08:07;;;;;;;12.88;7.38;;;15.70;1.00;;;;;;5039513;28;20025;-79
2022/10/10 09:10:51;;;;;;;14.15;7.45;;;16.70;1.00;;;;;;5059004;28;20480;-79
2022/10/10 09:13:28;;;;;;;9.75;7.25;;;16.60;1.00;;;;;;5038701;28;20105;-79
2022/10/10 09:15:58;;;;;;;10.18;7.65;;;17.80;1.00;;;;;;5037661;28;20029;-79
2022/10/10 09:18:52;;;;;;;11.90;6.95;;;20.00;1.00;;;;;;5036816;28;20030;-79
2022/10/10 09:21:24;;;;;;;11.05;7.45;;;20.20;1.00;;;;;;5025420;28;20440;-79
2022/10/10 09:24:14;;;;;;;14.48;8.13;;;20.90;1.00;;;;;;5038429;28;20033;-79
2022/10/10 09:26:49;;;;;;;14.90;7.43;;;23.30;1.00;;;;;;5032187;28;20021;-79
2022/10/10 09:29:29;;;;;;;12.05;7.78;;;21.60;1.00;;;;;;5034376;28;20022;-79
2022/10/10 09:32:04;;;;;;;;;;;19.30;1.00;;;;;;5017651;28;20033;-79
2022/10/10 09:34:56;;;;;;;11.00;7.35;;;18.50;1.00;;;;;;5033266;28;19998;-79
2022/10/10 09:37:33;;;;;;;11.57;7.55;;;19.20;1.00;;;;;;5037162;28;20465;-79
2022/10/10 09:40:01;;;;;;;11.88;7.55;;;18.90;1.00;;;;;;5039947;28;20037;-79
2022/10/10 09:42:38;;;;;;;10.57;7.47;;;18.30;1.00;;;;;;5035959;28;20022;-79
2022/10/10 09:45:33;;;;;;;11.45;7.30;;;18.00;1.00;;;;;;5037293;28;20025;-79
2022/10/10 09:47:59;;;;;;;11.50;8.75;;;17.70;1.00;;;;;;5020234;28;20037;-79
2022/10/10 09:50:25;;;;;;;15.05;8.77;;;17.40;1.00;;;;;;5032636;28;20022;-79
2022/10/10 09:52:51;;;;;;;16.10;9.13;;;17.10;1.00;;;;;;5040860;28;20104;-79
2022/10/10 09:55:25;;;;;;;11.75;7.97;;;16.80;1.00;;;;;;5022393;28;20120;-79
2022/10/10 09:57:52;;;;;;;21.05;10.13;;;17.10;1.00;;;;;;5041900;28;20100;-78
2022/10/10 10:00:18;;;;;;;15.73;9.63;;;17.30;1.00;;;;;;5037787;28;20021;-78
2022/10/10 10:02:47;;;;;;;13.43;8.55;;;17.80;1.00;;;;;;5031819;28;20457;-77
2022/10/10 10:05:26;;;;;;;12.43;8.02;;;18.10;1.00;;;;;;5033088;28;20073;-77
2022/10/10 10:07:52;;;;;;;13.00;7.60;;;18.80;1.00;;;;;;5031546;28;20036;-78
2022/10/10 10:10:21;;;;;;;12.38;8.23;;;18.60;1.00;;;;;;5031963;28;20025;-78
2022/10/10 10:12:47;;;;;;;13.23;7.80;;;18.90;1.00;;;;;;5033629;28;20044;-78
2022/10/10 10:15:21;;;;;;;11.25;7.93;;;18.90;1.00;;;;;;5030968;28;20026;-78
2022/10/10 10:18:15;;;;;;;13.02;8.20;;;19.50;1.00;;;;;;5032351;28;20025;-78
2022/10/10 10:20:47;;;;;;;12.93;7.88;;;19.30;1.00;;;;;;5037666;28;20029;-78
2022/10/10 10:23:34;;;;;;;13.75;8.23;;;18.70;1.00;;;;;;5025639;28;20484;-78
2022/10/10 10:26:05;;;;;;;13.30;8.25;;;19.50;1.00;;;;;;5026350;28;20489;-78
2022/10/10 10:28:39;;;;;;;11.73;7.82;;;20.00;1.00;;;;;;5022309;28;20065;-78
2022/10/10 10:31:12;;;;;;;13.52;8.95;;;20.30;1.00;;;;;;5024180;28;20465;-78
2022/10/10 10:33:50;;;;;;;13.25;8.15;;;19.70;1.00;;;;;;5028685;28;20045;-78
2022/10/10 10:36:23;;;;;;;11.48;6.97;;;19.10;1.00;;;;;;5028350;28;20021;-78
2022/10/10 10:38:57;;;;;;;13.73;8.20;;;18.60;1.00;;;;;;5023735;28;20456;-78
2022/10/10 10:41:44;;;;;;;10.55;8.32;;;17.90;1.00;;;;;;5019741;28;20030;-77
2022/10/10 10:44:23;;;;;;;13.60;7.47;;;17.50;1.00;;;;;;5015244;28;20034;-77
2022/10/10 10:47:07;;;;;;;10.40;7.80;;;17.10;1.00;;;;;;5033337;28;20025;-77
2022/10/10 10:50:04;;;;;;;10.93;7.95;;;17.20;1.00;;;;;;5027550;28;20168;-78
2022/10/10 10:53:03;;;;;;;13.10;7.60;;;17.20;1.00;;;;;;5013274;28;20378;-77
2022/10/10 10:55:56;;;;;;;16.02;8.70;;;17.00;1.00;;;;;;5015948;28;20037;-77
2022/10/10 10:58:59;;;;;;;10.77;8.38;;;16.80;1.00;;;;;;5013210;28;20122;-78
2022/10/10 11:01:26;;;;;;;13.85;8.55;;;16.70;1.00;;;;;;5013518;28;20026;-77
2022/10/10 11:04:04;;;;;;;11.70;8.30;;;16.70;1.00;;;;;;5027231;28;20396;-77
2022/10/10 11:06:50;;;;;;;18.08;8.52;;;16.60;1.00;;;;;;5033294;28;20033;-77
2022/10/10 11:09:22;;;;;;;11.98;8.07;;;16.70;1.00;;;;;;5033089;28;20432;-78
2022/10/10 11:12:10;;;;;;;14.23;8.73;;;16.70;1.00;;;;;;5033075;28;20029;-78
2022/10/10 11:14:36;;;;;;;11.40;7.72;;;16.90;1.00;;;;;;5032776;28;20025;-78
2022/10/10 11:17:18;;;;;;;12.82;8.40;;;17.10;1.00;;;;;;5032729;28;20515;-78
2022/10/10 11:19:55;;;;;;;15.27;8.65;;;17.30;1.00;;;;;;5013797;28;20030;-77
2022/10/10 11:22:41;;;;;;;14.48;8.45;;;17.10;1.00;;;;;;5013539;28;20014;-77
2022/10/10 11:25:13;;;;;;;15.75;8.25;;;17.20;1.00;;;;;;5029313;28;20080;-78
2022/10/10 11:27:47;;;;;;;11.55;8.27;;;16.90;1.00;;;;;;5033896;28;20025;-78
2022/10/10 11:30:23;;;;;;;12.65;9.02;;;17.00;1.00;;;;;;5036853;28;20022;-78
2022/10/10 11:33:14;;;;;;;12.70;9.00;;;17.00;2.90;;;;;;5031714;28;20055;-78
2022/10/10 11:35:56;;;;;;;18.77;8.75;;;17.10;7.90;;;;;;5053124;28;20093;-78
2022/10/10 11:38:40;;;;;;;13.55;9.50;;;17.10;9.10;;;;;;5035171;28;20017;-77
2022/10/10 11:41:22;;;;;;;10.90;8.63;;;16.90;12.00;;;;;;5031483;28;20056;-78
2022/10/10 11:44:18;;;;;;;15.50;9.13;;;16.70;16.80;;;;;;5044113;28;20123;-78
2022/10/10 11:46:57;;;;;;;14.40;9.05;;;16.60;17.60;;;;;;5026263;28;20044;-78
2022/10/10 11:49:33;;;;;;;17.73;8.63;;;16.50;21.90;;;;;;5036117;28;20398;-77
2022/10/10 11:52:30;;;;;;;11.60;7.75;;;16.40;29.70;;;;;;5048107;28;20551;-77
2022/10/10 11:55:25;;;;;;;14.40;7.65;;;16.20;33.30;;;;;;5029665;28;20021;-77
2022/10/10 11:58:06;;;;;;;14.38;7.72;;;16.00;37.60;;;;;;5031930;28;20022;-77
2022/10/10 12:00:53;;;;;;;11.13;6.30;;;15.80;58.30;;;;;;5033006;28;20025;-77
2022/10/10 12:03:19;;;;;;;9.52;4.53;;;15.70;71.10;;;;;;5038967;28;20039;-78
2022/10/10 12:05:54;;;;;;;9.13;3.78;;;15.70;77.60;;;;;;5015735;28;20052;-78
2022/10/10 12:08:29;;;;;;;12.20;3.33;;;15.70;99.90;;;;;;5037426;28;20100;-77
2022/10/10 12:11:05;;;;;;;13.20;2.97;;;15.80;99.90;;;;;;5027982;28;20037;-77
2022/10/10 12:13:41;;;;;;;4.28;2.80;;;15.80;99.90;;;;;;5032821;28;20079;-77
2022/10/10 12:16:14;;;;;;;4.32;2.08;;;15.60;99.90;;;;;;5032796;28;20484;-77
2022/10/10 12:18:44;;;;;;;7.43;1.90;;;15.70;99.90;;;;;;5030265;28;20492;-77
2022/10/10 12:21:12;;;;;;;;;;;15.60;99.90;;;;;;5038636;28;20063;-78
2022/10/10 12:23:39;;;;;;;4.20;1.55;;;15.40;99.90;;;;;;5033303;28;19952;-77
2022/10/10 12:26:05;;;;;;;3.67;0.50;;;15.20;99.90;;;;;;5036764;28;20029;-78
2022/10/10 12:28:55;;;;;;;4.60;0.65;;;14.60;99.90;;;;;;5032770;28;20473;-78
2022/10/10 12:31:38;;;;;;;3.78;1.00;;;14.20;99.90;;;;;;5044117;28;20032;-79
2022/10/10 12:34:05;;;;;;;4.47;0.73;;;14.10;99.90;;;;;;5022770;28;20422;-79
2022/10/10 12:36:31;;;;;;;2.47;0.70;;;14.10;99.90;;;;;;5015583;28;20047;-79
2022/10/10 12:39:06;;;;;;;5.40;0.90;;;14.20;99.90;;;;;;5012533;28;20037;-79
2022/10/10 12:41:55;;;;;;;5.13;0.52;;;14.00;99.90;;;;;;5013358;28;20026;-78
2022/10/10 12:44:20;;;;;;;4.72;0.80;;;13.70;99.90;;;;;;5009853;28;20069;-78
2022/10/10 12:46:48;;;;;;;6.05;0.90;;;13.40;99.90;;;;;;5012990;28;20037;-78
2022/10/10 12:49:22;;;;;;;6.72;1.10;;;13.40;99.90;;;;;;5006889;28;20018;-78
2022/10/10 12:52:11;;;;;;;4.68;1.10;;;13.40;99.90;;;;;;5005041;28;20472;-78
2022/10/10 12:54:43;;;;;;;5.80;1.15;;;13.30;99.90;;;;;;5010977;28;20642;-79
2022/10/10 12:57:33;;;;;;;7.13;1.02;;;13.40;99.90;;;;;;5011061;28;20632;-79
2022/10/10 13:00:23;;;;;;;6.55;1.00;;;13.60;99.90;;;;;;5015600;28;20056;-78
2022/10/10 13:02:54;;;;;;;;;;;13.80;99.90;;;;;;5016187;28;20054;-78
2022/10/10 13:05:26;;;;;;;8.13;1.15;;;13.80;99.90;;;;;;5016117;28;20361;-78
2022/10/10 13:07:54;;;;;;;5.70;0.75;;;13.50;99.90;;;;;;5012355;28;20034;-78
2022/10/10 13:10:26;;;;;;;5.90;1.05;;;13.50;99.90;;;;;;5011785;28;20070;-78